Terminal Aerodrome Forecast
Issued by NWS Portland, OR

Home | Current Version | Previous Version | Text Only | Print | Product List | Glossary On
Versions: 1 2 3 4 5 6 7 8 9 10 11 12 13 14 15 16 17 18 19 20 21 22 23 24 25 26 27 28 29 30 31 32 33 34
289
FTUS46 KPQR 021724
TAFAST
TAF
KAST 021724Z 0218/0318 16004KT 4SM -RA BR BKN025 OVC030
     FM022000 18012G22KT 4SM -RA BR BKN010 OVC025
     FM030000 22010G20KT 5SM -SHRA BR BKN010 OVC020
     FM030400 25008KT P6SM -SHRA BKN025 OVC050
     FM031200 25004KT P6SM -SHRA OVC050=

USA.gov is the U.S. government's official web portal to all federal, state and local government web resources and services.